createdAt,value
2023-03-30T00:03:35.645Z,70.09
2023-03-30T00:06:05.698Z,70.01
2023-03-30T00:08:33.976Z,70.01
2023-03-30T00:11:07.954Z,70.08
2023-03-30T00:13:37.942Z,70.06
2023-03-30T00:16:09.425Z,69.94
2023-03-30T00:18:38.330Z,69.91
2023-03-30T00:21:08.588Z,69.88
2023-03-30T00:23:38.190Z,69.86
2023-03-30T00:26:07.248Z,69.88
2023-03-30T00:28:35.865Z,69.82
2023-03-30T00:31:05.208Z,69.82
2023-03-30T00:33:44.861Z,69.80
2023-03-30T00:36:17.035Z,69.76
2023-03-30T00:38:46.167Z,69.78
2023-03-30T00:41:14.983Z,69.74
2023-03-30T00:44:02.322Z,69.77
2023-03-30T00:46:31.579Z,69.74
2023-03-30T00:49:05.094Z,69.74
2023-03-30T00:51:35.524Z,69.77
2023-03-30T00:54:10.626Z,69.79
2023-03-30T00:56:40.410Z,69.95
2023-03-30T00:59:08.918Z,70.16
2023-03-30T01:01:37.365Z,70.75
2023-03-30T01:04:08.404Z,70.98
2023-03-30T01:06:37.593Z,71.06
2023-03-30T01:09:06.016Z,71.06
2023-03-30T01:11:34.438Z,71.05
2023-03-30T01:14:06.803Z,71.36
2023-03-30T01:16:53.275Z,71.65
2023-03-30T01:19:39.814Z,71.95
2023-03-30T01:22:44.593Z,72.52
2023-03-30T01:25:50.999Z,73.17
2023-03-30T01:28:58.549Z,72.78
2023-03-30T01:32:09.846Z,72.25
2023-03-30T01:34:49.350Z,71.79
2023-03-30T01:37:37.019Z,71.41
2023-03-30T01:40:10.852Z,71.34
2023-03-30T01:42:42.985Z,71.51
2023-03-30T01:45:40.524Z,71.52
2023-03-30T01:48:15.001Z,71.40
2023-03-30T01:51:03.651Z,71.28
2023-03-30T01:53:52.561Z,71.12
2023-03-30T01:56:27.543Z,71.09
2023-03-30T01:59:11.274Z,71.14
2023-03-30T02:01:42.625Z,71.19
2023-03-30T02:04:12.731Z,71.19
2023-03-30T02:06:47.862Z,71.29
2023-03-30T02:09:20.394Z,71.29
2023-03-30T02:11:52.004Z,71.03
2023-03-30T02:14:27.364Z,70.72
2023-03-30T02:17:02.244Z,70.52
2023-03-30T02:19:30.686Z,70.39
2023-03-30T02:21:58.774Z,70.35
2023-03-30T02:24:30.923Z,70.60
2023-03-30T02:27:01.644Z,70.95
2023-03-30T02:29:32.555Z,71.43
2023-03-30T02:32:01.606Z,71.72
2023-03-30T02:35:04.055Z,72.18
2023-03-30T02:37:56.866Z,72.00
2023-03-30T02:41:04.328Z,71.65
2023-03-30T02:44:11.829Z,71.11
2023-03-30T02:47:16.441Z,70.57
2023-03-30T02:49:59.633Z,69.93
2023-03-30T02:52:42.915Z,69.60
2023-03-30T02:55:26.841Z,69.61
2023-03-30T02:58:14.770Z,69.74
2023-03-30T03:00:42.918Z,69.81
2023-03-30T03:03:33.798Z,69.58
2023-03-30T03:06:04.672Z,69.23
2023-03-30T03:08:36.974Z,69.03
2023-03-30T03:11:05.748Z,68.68
2023-03-30T03:13:36.825Z,68.27
2023-03-30T03:16:07.938Z,67.96
2023-03-30T03:18:36.126Z,67.68
2023-03-30T03:21:05.235Z,67.44
2023-03-30T03:23:35.036Z,66.97
2023-03-30T03:26:04.344Z,66.55
2023-03-30T03:28:33.927Z,65.81
2023-03-30T03:31:03.187Z,64.91
2023-03-30T03:33:32.290Z,64.03
2023-03-30T03:36:01.681Z,63.59
2023-03-30T03:38:30.922Z,62.16
2023-03-30T03:40:59.673Z,60.88
2023-03-30T03:43:27.748Z,61.04
2023-03-30T03:45:56.317Z,61.13
2023-03-30T03:48:25.273Z,61.66
2023-03-30T03:50:58.688Z,61.92
2023-03-30T03:53:28.408Z,61.65
2023-03-30T03:55:56.867Z,62.10
2023-03-30T03:58:26.289Z,62.77
2023-03-30T04:01:02.071Z,63.84
2023-03-30T04:03:31.016Z,65.72
2023-03-30T04:06:00.920Z,66.03
2023-03-30T04:08:30.019Z,67.13
2023-03-30T04:11:06.504Z,67.85
2023-03-30T04:13:35.701Z,69.15
2023-03-30T04:16:04.429Z,68.97
2023-03-30T04:18:33.592Z,68.92
2023-03-30T04:21:05.318Z,68.13
2023-03-30T04:23:35.676Z,66.16
2023-03-30T04:26:06.425Z,65.28
2023-03-30T04:28:36.064Z,63.43
2023-03-30T04:31:07.551Z,63.10
2023-03-30T04:33:42.467Z,63.31
2023-03-30T04:36:11.637Z,63.74
2023-03-30T04:38:40.983Z,64.10
2023-03-30T04:41:09.152Z,64.24
2023-03-30T04:43:37.348Z,64.25
2023-03-30T04:46:06.038Z,64.63
2023-03-30T04:48:35.194Z,64.35
2023-03-30T04:51:03.549Z,63.04
2023-03-30T04:53:32.023Z,61.95
2023-03-30T04:56:00.750Z,62.34
2023-03-30T04:58:29.416Z,62.00
2023-03-30T05:00:57.729Z,61.50
2023-03-30T05:03:26.091Z,60.80
2023-03-30T05:05:55.663Z,60.08
2023-03-30T05:08:24.033Z,59.82
2023-03-30T05:10:52.264Z,59.85
2023-03-30T05:13:20.536Z,58.82
2023-03-30T05:15:57.651Z,59.05
2023-03-30T05:18:26.194Z,59.16
2023-03-30T05:20:57.885Z,59.03
2023-03-30T05:23:26.682Z,59.48
2023-03-30T05:25:54.842Z,59.63
2023-03-30T05:28:23.334Z,59.36
2023-03-30T05:30:55.431Z,58.63
2023-03-30T05:33:23.777Z,58.78
2023-03-30T05:35:52.129Z,58.08
2023-03-30T05:38:20.307Z,58.21
2023-03-30T05:40:53.445Z,58.29
2023-03-30T05:43:24.411Z,57.98
2023-03-30T05:45:52.612Z,57.27
2023-03-30T05:48:21.457Z,57.60
2023-03-30T05:50:49.648Z,56.99
2023-03-30T05:53:18.570Z,57.09
2023-03-30T05:55:47.920Z,56.53
2023-03-30T05:58:17.356Z,56.31
2023-03-30T06:00:45.724Z,56.27
2023-03-30T06:03:13.895Z,56.81
2023-03-30T06:05:42.144Z,56.91
2023-03-30T06:08:11.698Z,56.62
2023-03-30T06:10:39.984Z,55.93
2023-03-30T06:13:08.386Z,55.66
2023-03-30T06:15:36.553Z,53.11
2023-03-30T06:18:05.034Z,53.78
2023-03-30T06:20:33.177Z,52.56
2023-03-30T06:23:01.280Z,51.12
2023-03-30T06:25:29.651Z,52.29
2023-03-30T06:27:57.818Z,51.58
2023-03-30T06:30:26.129Z,52.12
2023-03-30T06:32:54.710Z,51.89
2023-03-30T06:35:22.998Z,52.07
2023-03-30T06:37:51.051Z,50.26
2023-03-30T06:40:19.345Z,50.72
2023-03-30T06:42:49.059Z,50.06
2023-03-30T06:45:17.241Z,48.32
2023-03-30T06:47:45.503Z,47.44
2023-03-30T06:50:13.726Z,46.36
2023-03-30T06:52:41.942Z,45.26
2023-03-30T06:55:10.268Z,44.79
2023-03-30T06:57:38.756Z,44.02
2023-03-30T07:00:08.666Z,45.35
2023-03-30T07:02:37.396Z,45.49
2023-03-30T07:05:06.129Z,45.58
2023-03-30T07:07:35.029Z,44.60
2023-03-30T07:10:05.159Z,45.30
2023-03-30T07:12:33.703Z,45.89
2023-03-30T07:15:03.971Z,45.73
2023-03-30T07:17:34.672Z,45.17
2023-03-30T07:20:04.890Z,45.47
2023-03-30T07:22:33.081Z,45.53
2023-03-30T07:25:01.445Z,45.35
2023-03-30T07:27:29.549Z,45.45
2023-03-30T07:30:04.582Z,45.82
2023-03-30T07:32:39.200Z,46.22
2023-03-30T07:35:07.651Z,46.21
2023-03-30T07:37:35.797Z,46.70
2023-03-30T07:40:04.434Z,47.18
2023-03-30T07:42:32.672Z,47.50
2023-03-30T07:45:00.797Z,47.64
2023-03-30T07:47:29.496Z,47.81
2023-03-30T07:49:57.791Z,47.99
2023-03-30T07:52:26.195Z,48.10
2023-03-30T07:54:54.983Z,48.05
2023-03-30T07:57:23.509Z,48.05
2023-03-30T07:59:52.000Z,47.93
2023-03-30T08:02:20.343Z,47.89
2023-03-30T08:04:48.886Z,47.66
2023-03-30T08:07:17.209Z,47.44
2023-03-30T08:09:45.860Z,47.44
2023-03-30T08:12:14.133Z,47.72
2023-03-30T08:14:42.192Z,47.91
2023-03-30T08:17:10.878Z,47.66
2023-03-30T08:19:39.388Z,47.60
2023-03-30T08:22:07.746Z,47.53
2023-03-30T08:24:38.011Z,47.82
2023-03-30T08:27:06.356Z,47.79
2023-03-30T08:29:34.726Z,47.37
2023-03-30T08:32:02.984Z,47.18
2023-03-30T08:34:31.312Z,47.29
2023-03-30T08:36:59.556Z,46.98
2023-03-30T08:39:30.742Z,46.23
2023-03-30T08:42:21.245Z,46.23
2023-03-30T08:44:55.707Z,46.32
2023-03-30T08:47:35.037Z,46.27
2023-03-30T08:50:11.710Z,46.10
2023-03-30T08:52:40.714Z,45.86
2023-03-30T08:55:35.657Z,45.57
2023-03-30T08:58:16.957Z,44.83
2023-03-30T09:00:56.885Z,45.04
2023-03-30T09:03:42.804Z,44.60
2023-03-30T09:06:44.555Z,44.05
2023-03-30T09:09:16.550Z,43.58
2023-03-30T09:11:46.332Z,43.22
2023-03-30T09:14:31.262Z,43.55
2023-03-30T09:17:08.979Z,43.10
2023-03-30T09:19:53.843Z,42.24
2023-03-30T09:22:30.129Z,42.15
2023-03-30T09:24:58.826Z,42.44
2023-03-30T09:27:58.579Z,42.15
2023-03-30T09:30:35.011Z,41.24
2023-03-30T09:33:31.186Z,40.58
2023-03-30T09:36:08.496Z,39.72
2023-03-30T09:38:40.081Z,39.29
2023-03-30T09:41:31.519Z,39.30
2023-03-30T09:44:02.180Z,39.21
2023-03-30T09:46:31.053Z,38.44
2023-03-30T09:49:14.397Z,38.14
2023-03-30T09:52:07.585Z,38.38
2023-03-30T09:54:41.711Z,38.25
2023-03-30T09:57:32.437Z,37.63
2023-03-30T10:00:22.868Z,37.76
2023-03-30T10:02:59.735Z,38.15
2023-03-30T10:05:29.760Z,38.09
2023-03-30T10:08:06.027Z,38.11
2023-03-30T10:10:35.475Z,37.80
2023-03-30T10:13:09.447Z,36.74
2023-03-30T10:15:43.570Z,36.99
2023-03-30T10:18:27.417Z,37.10
2023-03-30T10:21:05.097Z,37.27
2023-03-30T10:23:40.711Z,37.43
2023-03-30T10:26:19.233Z,37.74
2023-03-30T10:29:02.296Z,37.55
2023-03-30T10:31:34.909Z,37.16
2023-03-30T10:34:05.757Z,37.22
2023-03-30T10:36:40.845Z,36.98
2023-03-30T10:39:18.089Z,36.15
2023-03-30T10:41:47.952Z,36.10
2023-03-30T10:44:31.957Z,36.22
2023-03-30T10:47:21.858Z,35.33
2023-03-30T10:50:18.568Z,35.18
2023-03-30T10:53:17.696Z,34.63
2023-03-30T10:56:04.246Z,34.35
2023-03-30T10:58:52.438Z,34.59
2023-03-30T11:01:20.807Z,34.97
2023-03-30T11:03:56.918Z,34.98
2023-03-30T11:06:31.562Z,35.25
2023-03-30T11:09:04.130Z,35.88
2023-03-30T11:11:41.088Z,36.59
2023-03-30T11:14:25.854Z,37.26
2023-03-30T11:17:08.163Z,38.23
2023-03-30T11:19:52.835Z,39.06
2023-03-30T11:22:43.696Z,39.42
2023-03-30T11:25:30.769Z,40.12
2023-03-30T11:28:02.248Z,40.56
2023-03-30T11:30:34.038Z,41.24
2023-03-30T11:33:36.365Z,41.99
2023-03-30T11:36:24.590Z,42.27
2023-03-30T11:39:00.994Z,42.65
2023-03-30T11:41:48.478Z,43.20
2023-03-30T11:44:18.079Z,43.62
2023-03-30T11:47:08.944Z,43.83
2023-03-30T11:50:14.202Z,44.14
2023-03-30T11:53:11.622Z,44.12
2023-03-30T11:55:49.903Z,43.47
2023-03-30T11:58:23.847Z,42.26
2023-03-30T12:01:10.703Z,41.50
2023-03-30T12:03:51.339Z,41.64
2023-03-30T12:06:31.977Z,42.20
2023-03-30T12:09:34.608Z,42.09
2023-03-30T12:12:11.480Z,41.53
2023-03-30T12:14:54.938Z,42.37
2023-03-30T12:17:33.393Z,42.52
2023-03-30T12:20:11.314Z,42.77
2023-03-30T12:23:13.913Z,44.00
2023-03-30T12:25:42.438Z,44.77
2023-03-30T12:28:17.459Z,45.34
2023-03-30T12:30:58.303Z,46.58
2023-03-30T12:33:28.500Z,47.38
2023-03-30T12:35:59.516Z,46.83
2023-03-30T12:38:37.879Z,47.17
2023-03-30T12:41:11.406Z,47.86
2023-03-30T12:44:15.597Z,48.35
2023-03-30T12:47:13.380Z,49.71
2023-03-30T12:49:47.310Z,50.12
2023-03-30T12:52:34.758Z,50.17
2023-03-30T12:55:17.007Z,50.60
2023-03-30T12:58:24.462Z,49.34
2023-03-30T13:01:14.663Z,49.39
2023-03-30T13:03:51.999Z,48.87
2023-03-30T13:06:28.813Z,48.42
2023-03-30T13:09:17.429Z,47.76
2023-03-30T13:11:50.108Z,47.61
2023-03-30T13:14:57.909Z,46.58
2023-03-30T13:17:26.334Z,45.27
2023-03-30T13:20:26.032Z,44.72
2023-03-30T13:23:01.792Z,45.18
2023-03-30T13:25:44.305Z,45.53
2023-03-30T13:28:44.802Z,46.28
2023-03-30T13:31:47.698Z,46.89
2023-03-30T13:34:31.672Z,46.43
2023-03-30T13:37:18.774Z,46.34
2023-03-30T13:40:07.252Z,45.73
2023-03-30T13:42:47.672Z,46.10
2023-03-30T13:45:27.167Z,47.38
2023-03-30T13:48:22.616Z,47.89
2023-03-30T13:51:00.780Z,47.83
2023-03-30T13:53:38.186Z,47.50
2023-03-30T13:56:09.590Z,47.50
2023-03-30T13:58:40.290Z,46.99
2023-03-30T14:01:12.199Z,47.29
2023-03-30T14:03:48.806Z,47.57
2023-03-30T14:06:22.765Z,46.48
2023-03-30T14:09:07.348Z,46.25
2023-03-30T14:11:41.557Z,46.87
2023-03-30T14:14:21.291Z,47.92
2023-03-30T14:16:51.918Z,48.11
2023-03-30T14:19:33.206Z,49.00
2023-03-30T14:22:12.692Z,49.35
2023-03-30T14:25:00.238Z,49.29
2023-03-30T14:27:39.393Z,49.17
2023-03-30T14:30:29.725Z,48.95
2023-03-30T14:33:11.631Z,48.97
2023-03-30T14:35:52.147Z,49.71
2023-03-30T14:38:33.380Z,51.09
2023-03-30T14:41:01.925Z,51.68
2023-03-30T14:43:31.762Z,51.88
2023-03-30T14:46:05.229Z,52.29
2023-03-30T14:48:37.945Z,52.81
2023-03-30T14:51:36.278Z,53.08
2023-03-30T14:54:06.584Z,52.92
2023-03-30T14:56:35.497Z,53.28
2023-03-30T14:59:03.944Z,53.95
2023-03-30T15:01:34.294Z,54.86
2023-03-30T15:04:13.839Z,55.64
2023-03-30T15:06:43.137Z,55.57
2023-03-30T15:09:23.471Z,55.41
2023-03-30T15:12:02.058Z,55.44
2023-03-30T15:14:40.887Z,55.09
2023-03-30T15:17:14.880Z,54.70
2023-03-30T15:19:43.686Z,54.32
2023-03-30T15:22:32.084Z,54.05
2023-03-30T15:25:05.706Z,53.48
2023-03-30T15:27:37.272Z,52.93
2023-03-30T15:30:06.609Z,53.68
2023-03-30T15:32:39.432Z,53.37
2023-03-30T15:35:23.802Z,52.07
2023-03-30T15:37:53.817Z,52.43
2023-03-30T15:40:38.866Z,52.61
2023-03-30T15:43:18.927Z,52.46
2023-03-30T15:45:51.325Z,51.42
2023-03-30T15:48:23.893Z,49.77
2023-03-30T15:51:12.647Z,49.73
2023-03-30T15:53:47.028Z,48.45
2023-03-30T15:56:23.719Z,50.34
2023-03-30T15:58:52.266Z,51.46
2023-03-30T16:01:20.767Z,51.50
2023-03-30T16:04:01.274Z,51.88
2023-03-30T16:06:29.344Z,52.12
2023-03-30T16:08:57.515Z,52.92
2023-03-30T16:11:26.224Z,53.33
2023-03-30T16:13:54.309Z,53.49
2023-03-30T16:16:22.738Z,53.72
2023-03-30T16:18:51.191Z,53.59
2023-03-30T16:21:19.352Z,53.99
2023-03-30T16:23:47.790Z,54.22
2023-03-30T16:26:16.285Z,54.31
2023-03-30T16:28:45.133Z,54.59
2023-03-30T16:31:22.987Z,54.63
2023-03-30T16:33:52.687Z,54.06
2023-03-30T16:36:22.753Z,54.01
2023-03-30T16:38:50.996Z,54.42
2023-03-30T16:41:21.977Z,54.52
2023-03-30T16:43:50.267Z,54.53
2023-03-30T16:46:20.723Z,54.41
2023-03-30T16:48:48.978Z,54.04
2023-03-30T16:51:17.621Z,53.81
2023-03-30T16:53:46.017Z,53.66
2023-03-30T16:56:17.693Z,53.42
2023-03-30T16:58:46.801Z,53.52
2023-03-30T17:01:15.665Z,53.62
2023-03-30T17:03:44.671Z,53.92
2023-03-30T17:06:13.370Z,54.42
2023-03-30T17:08:43.024Z,54.76
2023-03-30T17:11:11.751Z,54.82
2023-03-30T17:13:39.964Z,54.82
2023-03-30T17:16:11.449Z,54.30
2023-03-30T17:18:39.735Z,53.72
2023-03-30T17:21:08.295Z,53.01
2023-03-30T17:23:36.983Z,52.56
2023-03-30T17:26:05.424Z,51.48
2023-03-30T17:28:35.124Z,50.48
2023-03-30T17:31:07.765Z,50.42
2023-03-30T17:33:37.438Z,49.49
2023-03-30T17:36:18.636Z,49.57
2023-03-30T17:38:47.632Z,50.50
2023-03-30T17:41:18.500Z,51.93
2023-03-30T17:43:48.417Z,52.85
2023-03-30T17:46:19.701Z,54.14
2023-03-30T17:48:48.763Z,54.67
2023-03-30T17:51:16.945Z,55.36
2023-03-30T17:53:45.772Z,55.62
2023-03-30T17:56:14.091Z,55.28
2023-03-30T17:58:42.272Z,55.50
2023-03-30T18:01:13.220Z,56.41
2023-03-30T18:03:41.450Z,56.75
2023-03-30T18:06:12.169Z,57.32
2023-03-30T18:08:40.764Z,57.18
2023-03-30T18:11:09.223Z,57.35
2023-03-30T18:13:37.719Z,57.44
2023-03-30T18:16:06.282Z,57.65
2023-03-30T18:18:34.627Z,57.61
2023-03-30T18:21:04.520Z,57.69
2023-03-30T18:23:34.936Z,57.96
2023-03-30T18:26:05.593Z,58.18
2023-03-30T18:28:35.727Z,58.33
2023-03-30T18:31:04.300Z,58.44
2023-03-30T18:33:32.873Z,58.66
2023-03-30T18:36:01.739Z,58.77
2023-03-30T18:38:30.197Z,58.52
2023-03-30T18:40:58.534Z,58.69
2023-03-30T18:43:27.386Z,59.06
2023-03-30T18:46:00.845Z,59.52
2023-03-30T18:48:30.157Z,59.99
2023-03-30T18:50:58.466Z,60.19
2023-03-30T18:53:28.308Z,60.55
2023-03-30T18:55:58.664Z,61.01
2023-03-30T18:58:29.858Z,61.38
2023-03-30T19:00:58.216Z,61.92
2023-03-30T19:03:27.591Z,63.91
2023-03-30T19:05:55.996Z,64.52
2023-03-30T19:08:26.311Z,64.68
2023-03-30T19:10:57.408Z,64.57
2023-03-30T19:13:27.041Z,64.57
2023-03-30T19:15:55.388Z,64.86
2023-03-30T19:18:23.483Z,64.69
2023-03-30T19:20:52.456Z,64.38
2023-03-30T19:23:20.664Z,64.49
2023-03-30T19:25:49.289Z,64.23
2023-03-30T19:28:19.262Z,64.21
2023-03-30T19:30:48.870Z,64.30
2023-03-30T19:33:17.570Z,64.26
2023-03-30T19:35:46.480Z,64.29
2023-03-30T19:38:15.845Z,64.41
2023-03-30T19:40:44.010Z,64.40
2023-03-30T19:43:12.224Z,64.50
2023-03-30T19:45:40.427Z,64.48
2023-03-30T19:48:08.743Z,64.56
2023-03-30T19:50:37.257Z,64.49
2023-03-30T19:53:05.471Z,64.62
2023-03-30T19:55:34.369Z,64.58
2023-03-30T19:58:02.679Z,64.48
2023-03-30T20:00:30.920Z,64.57
2023-03-30T20:02:59.058Z,64.55
2023-03-30T20:05:27.443Z,64.50
2023-03-30T20:07:55.608Z,64.44
2023-03-30T20:10:25.785Z,64.44
2023-03-30T20:12:54.489Z,64.45
2023-03-30T20:15:25.008Z,64.36
2023-03-30T20:17:53.456Z,64.45
2023-03-30T20:20:22.679Z,64.47
2023-03-30T20:22:52.082Z,64.42
2023-03-30T20:25:22.270Z,64.46
2023-03-30T20:27:50.895Z,64.43
2023-03-30T20:30:20.189Z,64.35
2023-03-30T20:32:59.681Z,64.33
2023-03-30T20:35:33.015Z,64.31
2023-03-30T20:38:01.782Z,64.27
2023-03-30T20:40:30.672Z,64.18
2023-03-30T20:42:58.904Z,64.18
2023-03-30T20:45:27.294Z,64.10
2023-03-30T20:47:55.738Z,63.89
2023-03-30T20:50:24.223Z,63.71
2023-03-30T20:52:52.918Z,63.63
2023-03-30T20:55:21.068Z,63.64
2023-03-30T20:57:49.265Z,63.56
2023-03-30T21:00:18.551Z,63.51
2023-03-30T21:02:46.753Z,63.38
2023-03-30T21:05:15.127Z,63.35
2023-03-30T21:07:44.523Z,63.27
2023-03-30T21:10:12.880Z,63.15
2023-03-30T21:12:40.963Z,63.09
2023-03-30T21:15:09.677Z,63.14
2023-03-30T21:17:37.804Z,62.85
2023-03-30T21:20:06.652Z,62.83
2023-03-30T21:22:35.545Z,62.90
2023-03-30T21:25:03.824Z,62.94
2023-03-30T21:27:32.091Z,62.78
2023-03-30T21:30:00.258Z,62.86
2023-03-30T21:32:30.118Z,62.75
2023-03-30T21:34:59.869Z,62.75
2023-03-30T21:37:28.214Z,62.63
2023-03-30T21:39:56.493Z,61.76
2023-03-30T21:42:24.638Z,61.69
2023-03-30T21:44:53.601Z,62.05
2023-03-30T21:47:21.658Z,61.91
2023-03-30T21:49:50.984Z,61.64
2023-03-30T21:52:19.194Z,61.50
2023-03-30T21:54:47.486Z,61.76
2023-03-30T21:57:15.732Z,61.74
2023-03-30T21:59:44.216Z,61.41
2023-03-30T22:02:12.512Z,61.05
2023-03-30T22:04:43.743Z,60.22
2023-03-30T22:07:12.953Z,59.82
2023-03-30T22:09:41.291Z,58.22
2023-03-30T22:12:09.396Z,57.74
2023-03-30T22:14:38.061Z,57.15
2023-03-30T22:17:06.758Z,56.94
2023-03-30T22:19:34.883Z,56.17
2023-03-30T22:22:03.188Z,56.38
2023-03-30T22:24:31.466Z,55.95
2023-03-30T22:26:59.666Z,54.40
2023-03-30T22:29:28.028Z,54.03
2023-03-30T22:31:56.315Z,53.73
2023-03-30T22:34:24.778Z,52.82
2023-03-30T22:36:52.924Z,53.28
2023-03-30T22:39:21.092Z,52.36
2023-03-30T22:41:49.362Z,52.87
2023-03-30T22:44:17.993Z,53.23
2023-03-30T22:46:47.280Z,53.70
2023-03-30T22:49:15.477Z,53.82
2023-03-30T22:51:43.767Z,54.82
2023-03-30T22:54:11.865Z,55.68
2023-03-30T22:56:39.921Z,55.62
2023-03-30T22:59:08.111Z,55.96
2023-03-30T23:01:36.763Z,56.02
2023-03-30T23:04:06.642Z,56.42
2023-03-30T23:06:35.056Z,56.60
2023-03-30T23:09:04.477Z,55.71
2023-03-30T23:11:34.349Z,54.04
2023-03-30T23:14:02.723Z,53.24
2023-03-30T23:16:34.610Z,53.03
2023-03-30T23:19:04.445Z,51.73
2023-03-30T23:21:32.631Z,50.20
2023-03-30T23:24:02.527Z,47.90
2023-03-30T23:26:30.914Z,46.72
2023-03-30T23:28:59.037Z,45.50
2023-03-30T23:31:27.301Z,45.95
2023-03-30T23:33:56.737Z,46.14
2023-03-30T23:36:25.269Z,45.10
2023-03-30T23:38:53.463Z,44.44
2023-03-30T23:41:22.229Z,43.76
2023-03-30T23:43:50.428Z,42.43
2023-03-30T23:46:20.132Z,41.37
2023-03-30T23:48:48.780Z,40.04
2023-03-30T23:51:16.937Z,40.17
2023-03-30T23:53:45.138Z,39.89
2023-03-30T23:56:13.508Z,41.32
2023-03-30T23:58:41.846Z,42.28
